Time;durP1;ratioP1;P1;durP2;ratioP2;P2;SDS_P1;SDS_P2;PMS_P1;PMS_P2;Temp;Humidity;BMP_temperature;BMP_pressure;BME280_temperature;BME280_humidity;BME280_pressure;Samples;Min_cycle;Max_cycle;Signal;HPM_P1;HPM_P2
2022/03/13 00:00:44;;;;;;;2.30;2.20;;;8.30;99.90;;;;;;5035031;28;20209;-67
2022/03/13 00:03:11;;;;;;;2.17;2.07;;;8.20;99.90;;;;;;5034339;28;20251;-65
2022/03/13 00:05:41;;;;;;;2.20;2.10;;;8.20;99.90;;;;;;5042486;28;20906;-67
2022/03/13 00:08:22;;;;;;;2.40;2.30;;;8.10;99.90;;;;;;5054393;28;20210;-67
2022/03/13 00:10:56;;;;;;;2.42;2.33;;;8.10;99.90;;;;;;5043103;28;20212;-66
2022/03/13 00:13:31;;;;;;;1.90;1.80;;;8.10;99.90;;;;;;5053027;28;20236;-66
2022/03/13 00:15:58;;;;;;;2.20;2.10;;;8.10;99.90;;;;;;5063792;28;20184;-67
2022/03/13 00:18:25;;;;;;;2.38;2.28;;;8.00;99.90;;;;;;5063332;28;20221;-66
2022/03/13 00:20:52;;;;;;;2.22;2.13;;;8.00;99.90;;;;;;5069639;28;20234;-66
2022/03/13 00:23:20;;;;;;;2.40;2.30;;;7.90;99.90;;;;;;5064176;28;20263;-67
2022/03/13 00:25:47;;;;;;;2.30;2.20;;;7.80;99.90;;;;;;5066060;28;20208;-66
2022/03/13 00:28:14;;;;;;;2.15;2.05;;;7.80;99.90;;;;;;5058445;28;20294;-67
2022/03/13 00:30:42;;;;;;;2.20;2.10;;;7.80;99.90;;;;;;5068769;28;20247;-66
2022/03/13 00:33:10;;;;;;;2.17;2.08;;;7.80;99.90;;;;;;5072631;28;20220;-67
2022/03/13 00:35:38;;;;;;;2.53;2.43;;;7.70;99.90;;;;;;5070103;28;20200;-63
2022/03/13 00:38:05;;;;;;;2.28;2.17;;;7.70;99.90;;;;;;5054837;28;20211;-67
2022/03/13 00:40:34;;;;;;;2.47;2.38;;;7.60;99.90;;;;;;5058279;28;20207;-65
2022/03/13 00:43:01;;;;;;;2.30;2.20;;;7.50;99.90;;;;;;5056405;28;20224;-66
2022/03/13 00:45:29;;;;;;;2.20;2.10;;;7.50;99.90;;;;;;5063355;28;20211;-67
2022/03/13 00:47:56;;;;;;;2.67;2.57;;;7.50;99.90;;;;;;5071599;28;20236;-64
2022/03/13 00:50:23;;;;;;;2.60;2.50;;;7.40;99.90;;;;;;5055860;28;20287;-65
2022/03/13 00:52:50;;;;;;;2.53;2.43;;;7.40;99.90;;;;;;5052729;28;20228;-66
2022/03/13 00:55:17;;;;;;;2.70;2.60;;;7.30;99.90;;;;;;5053157;28;20295;-66
2022/03/13 00:57:45;;;;;;;2.60;2.50;;;7.30;99.90;;;;;;5053229;28;20208;-66
2022/03/13 01:00:13;;;;;;;2.80;2.70;;;7.30;99.90;;;;;;5052909;28;20212;-66
2022/03/13 01:02:40;;;;;;;2.50;2.40;;;7.20;99.90;;;;;;5052794;28;20230;-66
2022/03/13 01:05:10;;;;;;;2.90;2.70;;;7.20;99.90;;;;;;5053029;28;20255;-65
2022/03/13 01:07:36;;;;;;;2.65;2.55;;;7.10;99.90;;;;;;5052617;28;20207;-66
2022/03/13 01:10:06;;;;;;;2.60;2.50;;;7.10;99.90;;;;;;5052769;28;20295;-65
2022/03/13 01:12:33;;;;;;;2.73;2.63;;;7.00;99.90;;;;;;5052543;28;20278;-65
2022/03/13 01:15:01;;;;;;;2.72;2.58;;;7.00;99.90;;;;;;5052735;28;20299;-66
2022/03/13 01:17:28;;;;;;;2.57;2.47;;;6.90;99.90;;;;;;5052842;28;20231;-65
2022/03/13 01:19:55;;;;;;;2.73;2.63;;;6.90;99.90;;;;;;5054010;28;20653;-65
2022/03/13 01:22:22;;;;;;;2.83;2.63;;;6.80;99.90;;;;;;5057188;28;20227;-65
2022/03/13 01:24:51;;;;;;;2.67;2.55;;;6.80;99.90;;;;;;5053517;28;20223;-65
2022/03/13 01:27:18;;;;;;;3.00;2.80;;;6.70;99.90;;;;;;5054016;28;20658;-66
2022/03/13 01:29:46;;;;;;;3.00;2.90;;;6.60;99.90;;;;;;5051931;28;20200;-64
2022/03/13 01:32:15;;;;;;;2.90;2.80;;;6.60;99.90;;;;;;5051954;28;20691;-66
2022/03/13 01:34:45;;;;;;;2.90;2.70;;;6.60;99.90;;;;;;5052338;28;20295;-66
2022/03/13 01:37:27;;;;;;;2.80;2.70;;;6.60;99.90;;;;;;5046480;28;20205;-66
2022/03/13 01:39:55;;;;;;;3.10;2.90;;;6.60;99.90;;;;;;5051610;28;20542;-65
2022/03/13 01:42:22;;;;;;;2.70;2.60;;;6.50;99.90;;;;;;5051548;28;20216;-65
2022/03/13 01:44:49;;;;;;;3.00;2.90;;;6.60;99.90;;;;;;5052137;28;20282;-66
2022/03/13 01:47:18;;;;;;;2.87;2.77;;;6.40;99.90;;;;;;5052092;28;20204;-65
2022/03/13 01:49:46;;;;;;;3.00;2.80;;;6.40;99.90;;;;;;5051664;28;20592;-64
2022/03/13 01:52:15;;;;;;;2.90;2.80;;;6.40;99.90;;;;;;5046958;28;20648;-65
2022/03/13 01:54:44;;;;;;;2.72;2.60;;;6.40;99.90;;;;;;5043141;28;20288;-65
2022/03/13 01:57:16;;;;;;;2.83;2.63;;;6.30;99.90;;;;;;5041720;28;20212;-65
2022/03/13 01:59:43;;;;;;;3.30;3.10;;;6.30;99.90;;;;;;5049016;28;20204;-65
2022/03/13 02:02:10;;;;;;;3.07;2.90;;;6.20;99.90;;;;;;5060779;28;20219;-65
2022/03/13 02:04:38;;;;;;;3.10;2.90;;;6.20;99.90;;;;;;5036063;28;20701;-64
2022/03/13 02:07:05;;;;;;;3.00;2.80;;;6.10;99.90;;;;;;5036604;28;20279;-65
2022/03/13 02:09:32;;;;;;;3.20;3.00;;;6.10;99.90;;;;;;5037959;28;20204;-66
2022/03/13 02:11:59;;;;;;;2.73;2.63;;;6.00;99.90;;;;;;5040271;28;20227;-65
2022/03/13 02:14:26;;;;;;;3.10;2.90;;;6.10;99.90;;;;;;5034939;28;20267;-65
2022/03/13 02:16:53;;;;;;;2.93;2.77;;;6.00;99.90;;;;;;5037241;28;20205;-66
2022/03/13 02:19:21;;;;;;;2.87;2.77;;;6.00;99.90;;;;;;5034787;28;20291;-66
2022/03/13 02:21:52;;;;;;;2.60;2.50;;;6.00;99.90;;;;;;5039356;28;20319;-65
2022/03/13 02:24:28;;;;;;;2.87;2.67;;;6.00;99.90;;;;;;5039703;28;20200;-65
2022/03/13 02:27:03;;;;;;;3.05;2.88;;;5.90;99.90;;;;;;5052007;28;20203;-64
2022/03/13 02:29:31;;;;;;;3.10;2.90;;;5.80;99.90;;;;;;5047219;28;20200;-64
2022/03/13 02:31:59;;;;;;;3.00;2.90;;;5.90;99.90;;;;;;5055735;28;20323;-65
2022/03/13 02:34:27;;;;;;;3.40;3.20;;;5.80;99.90;;;;;;5051643;28;20200;-64
2022/03/13 02:37:01;;;;;;;2.90;2.80;;;5.90;99.90;;;;;;5051406;28;20203;-64
2022/03/13 02:39:35;;;;;;;3.10;2.90;;;5.90;99.90;;;;;;5049394;28;20206;-65
2022/03/13 02:42:07;;;;;;;3.30;3.10;;;5.80;99.90;;;;;;5060863;28;20227;-65
2022/03/13 02:44:34;;;;;;;3.00;2.80;;;5.70;99.90;;;;;;5045110;28;20224;-64
2022/03/13 02:47:05;;;;;;;2.80;2.70;;;5.60;99.90;;;;;;5055336;28;20204;-65
2022/03/13 02:49:33;;;;;;;3.35;3.15;;;5.60;99.90;;;;;;5050856;28;20246;-65
2022/03/13 02:52:04;;;;;;;3.17;2.97;;;5.60;99.90;;;;;;5051269;28;20310;-65
2022/03/13 02:54:33;;;;;;;2.85;2.72;;;5.60;99.90;;;;;;5052838;28;20365;-64
2022/03/13 02:57:00;;;;;;;3.03;2.83;;;5.60;99.90;;;;;;5052459;28;20212;-66
2022/03/13 02:59:27;;;;;;;3.20;3.00;;;5.60;99.90;;;;;;5051115;28;20200;-65
2022/03/13 03:01:54;;;;;;;3.00;2.80;;;5.50;99.90;;;;;;5051000;28;20736;-65
2022/03/13 03:04:24;;;;;;;3.03;2.93;;;5.50;99.90;;;;;;5049149;28;20687;-65
2022/03/13 03:07:00;;;;;;;3.20;3.00;;;5.40;99.90;;;;;;5044860;28;20247;-65
2022/03/13 03:09:30;;;;;;;3.80;3.50;;;5.30;99.90;;;;;;5054960;28;20645;-65
2022/03/13 03:12:00;;;;;;;3.20;3.00;;;5.30;99.90;;;;;;5054335;28;20319;-64
2022/03/13 03:14:28;;;;;;;3.57;3.37;;;5.30;99.90;;;;;;5049265;28;20251;-65
2022/03/13 03:16:55;;;;;;;3.20;3.10;;;5.30;99.90;;;;;;5053943;28;20290;-65
2022/03/13 03:19:22;;;;;;;3.17;2.97;;;5.30;99.90;;;;;;5055317;28;20302;-66
2022/03/13 03:21:52;;;;;;;3.10;2.90;;;5.30;99.90;;;;;;5054868;28;20314;-65
2022/03/13 03:24:21;;;;;;;3.30;3.10;;;5.20;99.90;;;;;;5055537;28;20212;-66
2022/03/13 03:26:48;;;;;;;3.17;2.97;;;5.20;99.90;;;;;;5055498;28;20208;-65
2022/03/13 03:29:17;;;;;;;3.70;3.50;;;5.20;99.90;;;;;;5055035;28;20224;-66
2022/03/13 03:31:45;;;;;;;3.60;3.40;;;5.20;99.90;;;;;;5054592;28;20638;-65
2022/03/13 03:34:15;;;;;;;3.55;3.35;;;5.20;99.90;;;;;;5054247;28;20211;-65
2022/03/13 03:36:44;;;;;;;3.30;3.10;;;5.20;99.90;;;;;;5054911;28;20610;-65
2022/03/13 03:39:12;;;;;;;3.50;3.20;;;5.20;99.90;;;;;;5055097;28;20207;-65
2022/03/13 03:41:41;;;;;;;3.33;3.13;;;5.20;99.90;;;;;;5036769;28;20315;-63
2022/03/13 03:44:08;;;;;;;3.63;3.33;;;5.20;99.90;;;;;;5053638;28;20207;-65
2022/03/13 03:46:36;;;;;;;3.20;3.00;;;5.20;99.90;;;;;;5054864;28;20291;-66
2022/03/13 03:49:03;;;;;;;3.07;2.97;;;5.20;99.90;;;;;;5054287;28;20218;-65
2022/03/13 03:51:30;;;;;;;3.30;3.10;;;5.30;99.90;;;;;;5055426;28;20326;-66
2022/03/13 03:53:57;;;;;;;3.40;3.20;;;5.30;99.90;;;;;;5072095;28;20227;-66
2022/03/13 03:56:24;;;;;;;3.63;3.43;;;5.40;99.90;;;;;;5064636;28;20235;-65
2022/03/13 03:58:51;;;;;;;3.50;3.30;;;5.40;99.90;;;;;;5054287;28;20287;-64
2022/03/13 04:01:17;;;;;;;3.35;3.15;;;5.40;99.90;;;;;;5053431;28;20672;-66
2022/03/13 04:03:46;;;;;;;3.83;3.55;;;5.50;99.90;;;;;;5053636;28;20672;-66
2022/03/13 04:06:13;;;;;;;3.07;2.97;;;5.50;99.90;;;;;;5055394;28;20354;-65
2022/03/13 04:08:40;;;;;;;2.90;2.80;;;5.50;99.90;;;;;;5057360;28;20302;-65
2022/03/13 04:11:08;;;;;;;3.10;2.90;;;5.60;99.90;;;;;;5059554;28;20218;-66
2022/03/13 04:13:38;;;;;;;3.10;2.90;;;5.50;99.90;;;;;;5053625;28;20262;-65
2022/03/13 04:16:07;;;;;;;3.40;3.20;;;5.60;99.90;;;;;;5052889;28;20269;-66
2022/03/13 04:18:34;;;;;;;3.20;3.00;;;5.60;99.90;;;;;;5055005;28;20204;-65
2022/03/13 04:21:04;;;;;;;3.30;3.10;;;5.50;99.90;;;;;;5054318;28;20204;-65
2022/03/13 04:23:32;;;;;;;3.40;3.20;;;5.50;99.90;;;;;;5068129;28;20219;-66
2022/03/13 04:25:59;;;;;;;3.40;3.20;;;5.50;99.90;;;;;;5069077;28;20212;-65
2022/03/13 04:28:27;;;;;;;3.40;3.20;;;5.40;99.90;;;;;;5054742;28;20211;-65
2022/03/13 04:30:57;;;;;;;3.20;3.00;;;5.30;99.90;;;;;;5055060;28;20216;-65
2022/03/13 04:33:25;;;;;;;3.28;3.08;;;5.20;99.90;;;;;;5053955;28;20259;-64
2022/03/13 04:35:55;;;;;;;3.17;3.00;;;5.20;99.90;;;;;;5064696;28;20203;-65
2022/03/13 04:38:24;;;;;;;3.50;3.30;;;5.20;99.90;;;;;;5066523;28;20224;-65
2022/03/13 04:40:54;;;;;;;2.97;2.87;;;5.10;99.90;;;;;;5054707;28;20215;-65
2022/03/13 04:43:22;;;;;;;4.00;3.70;;;5.10;99.90;;;;;;5055416;28;20224;-65
2022/03/13 04:45:49;;;;;;;3.55;3.35;;;5.10;99.90;;;;;;5053036;28;20241;-65
2022/03/13 04:48:17;;;;;;;3.60;3.30;;;5.10;99.90;;;;;;5052033;28;20204;-64
2022/03/13 04:50:44;;;;;;;3.20;3.00;;;5.10;99.90;;;;;;5050094;28;20208;-65
2022/03/13 04:53:11;;;;;;;3.40;3.20;;;5.20;99.90;;;;;;5052506;28;20232;-66
2022/03/13 04:55:39;;;;;;;3.20;3.00;;;5.20;99.90;;;;;;5052980;28;20204;-66
2022/03/13 04:58:08;;;;;;;3.20;3.00;;;5.20;99.90;;;;;;5052725;28;20212;-65
2022/03/13 05:00:38;;;;;;;3.40;3.20;;;5.20;99.90;;;;;;5052052;28;20204;-65
2022/03/13 05:03:05;;;;;;;3.37;3.17;;;5.20;99.90;;;;;;5051999;28;20273;-66
2022/03/13 05:05:34;;;;;;;3.30;3.10;;;5.20;99.90;;;;;;5052577;28;20574;-66
2022/03/13 05:08:01;;;;;;;3.30;3.00;;;5.20;99.90;;;;;;5053729;28;20883;-65
2022/03/13 05:10:36;;;;;;;3.35;3.15;;;5.10;99.90;;;;;;5053619;28;20287;-64
2022/03/13 05:13:05;;;;;;;3.33;3.13;;;5.10;99.90;;;;;;5053415;28;20234;-65
2022/03/13 05:15:32;;;;;;;3.43;3.23;;;5.00;99.90;;;;;;5053823;28;20196;-65
2022/03/13 05:17:59;;;;;;;2.97;2.87;;;5.10;99.90;;;;;;5052345;28;20273;-65
2022/03/13 05:20:26;;;;;;;3.10;2.90;;;5.10;99.90;;;;;;5052080;28;20204;-64
2022/03/13 05:22:53;;;;;;;3.10;2.90;;;5.10;99.90;;;;;;5051598;28;20606;-65
2022/03/13 05:25:20;;;;;;;4.07;3.10;;;5.10;99.90;;;;;;5052015;28;20262;-66
2022/03/13 05:27:47;;;;;;;3.33;3.13;;;5.10;99.90;;;;;;5051998;28;20302;-64
2022/03/13 05:30:15;;;;;;;3.65;3.45;;;5.10;99.90;;;;;;5052217;28;20650;-66
2022/03/13 05:32:42;;;;;;;3.27;3.07;;;5.10;99.90;;;;;;5060600;28;20224;-66
2022/03/13 05:35:10;;;;;;;2.90;2.80;;;5.20;99.90;;;;;;5066840;28;20263;-65
2022/03/13 05:37:37;;;;;;;3.20;3.00;;;5.20;99.90;;;;;;5066270;28;20215;-66
2022/03/13 05:40:05;;;;;;;3.17;2.97;;;5.30;99.90;;;;;;5064452;28;20215;-65
2022/03/13 05:42:32;;;;;;;3.13;2.93;;;5.30;99.90;;;;;;5052510;28;20996;-64
2022/03/13 05:44:59;;;;;;;2.77;2.67;;;5.20;99.90;;;;;;5053030;28;20654;-65
2022/03/13 05:47:27;;;;;;;3.17;3.07;;;5.20;99.90;;;;;;5054675;28;20693;-65
2022/03/13 05:49:54;;;;;;;3.40;3.20;;;5.30;99.90;;;;;;5065894;28;20226;-65
2022/03/13 05:52:21;;;;;;;3.67;3.47;;;5.10;99.90;;;;;;5050599;28;20310;-65
2022/03/13 05:54:48;;;;;;;3.67;3.47;;;5.10;99.90;;;;;;5052689;28;20235;-65
2022/03/13 05:57:15;;;;;;;3.47;3.27;;;5.10;99.90;;;;;;5052208;28;20231;-66
2022/03/13 05:59:42;;;;;;;3.30;3.10;;;5.00;99.90;;;;;;5051186;28;20670;-64
2022/03/13 06:02:09;;;;;;;3.60;3.40;;;4.90;99.90;;;;;;5052137;28;20310;-65
2022/03/13 06:04:37;;;;;;;3.22;3.08;;;4.80;99.90;;;;;;5051125;28;20301;-66
2022/03/13 06:07:05;;;;;;;3.53;3.33;;;4.70;99.90;;;;;;5051488;28;20204;-64
2022/03/13 06:09:32;;;;;;;3.80;3.60;;;4.70;99.90;;;;;;5051097;28;20290;-65
2022/03/13 06:12:00;;;;;;;3.90;3.70;;;4.50;99.90;;;;;;5051149;28;20255;-66
2022/03/13 06:14:27;;;;;;;3.60;3.40;;;4.50;99.90;;;;;;5051112;28;20281;-64
2022/03/13 06:16:54;;;;;;;3.97;3.77;;;4.40;99.90;;;;;;5051524;28;20211;-66
2022/03/13 06:19:21;;;;;;;3.67;3.47;;;4.50;99.90;;;;;;5050890;28;20239;-66
2022/03/13 06:21:50;;;;;;;3.27;3.07;;;4.60;99.90;;;;;;5045556;28;20232;-66
2022/03/13 06:24:18;;;;;;;3.22;3.10;;;4.70;99.90;;;;;;5051230;28;20283;-66
2022/03/13 06:26:45;;;;;;;3.50;3.30;;;4.80;99.90;;;;;;5060753;28;20223;-66
2022/03/13 06:29:14;;;;;;;3.13;3.03;;;5.00;99.90;;;;;;5061806;28;20239;-66
2022/03/13 06:31:41;;;;;;;3.40;3.20;;;5.10;99.90;;;;;;5061707;28;20219;-69
2022/03/13 06:34:08;;;;;;;3.40;3.20;;;5.20;99.90;;;;;;5062235;28;20697;-67
2022/03/13 06:36:37;;;;;;;2.93;2.83;;;5.30;99.90;;;;;;5055646;28;20254;-66
2022/03/13 06:39:06;;;;;;;3.33;3.13;;;5.50;99.90;;;;;;5052827;28;20211;-65
2022/03/13 06:41:33;;;;;;;3.70;3.50;;;5.60;99.90;;;;;;5054768;28;20310;-66
2022/03/13 06:44:00;;;;;;;3.30;3.10;;;5.70;99.90;;;;;;5055013;28;20294;-65
2022/03/13 06:46:26;;;;;;;3.20;3.10;;;5.80;99.90;;;;;;5063119;28;20230;-65
2022/03/13 06:48:53;;;;;;;3.27;3.07;;;6.00;99.90;;;;;;5065453;28;20845;-65
2022/03/13 06:51:20;;;;;;;2.80;2.70;;;6.10;99.90;;;;;;5064443;28;20235;-65
2022/03/13 06:53:47;;;;;;;2.83;2.73;;;6.30;99.90;;;;;;5056545;28;20887;-65
2022/03/13 06:56:15;;;;;;;3.63;3.43;;;6.50;99.90;;;;;;5058390;28;20219;-66
2022/03/13 06:58:42;;;;;;;3.40;3.20;;;6.60;99.90;;;;;;5057271;28;20299;-65
2022/03/13 07:01:10;;;;;;;3.50;3.30;;;6.60;99.90;;;;;;5057292;28;20208;-66
2022/03/13 07:03:37;;;;;;;3.30;3.10;;;6.70;99.90;;;;;;5056143;28;20196;-66
2022/03/13 07:06:04;;;;;;;3.22;3.03;;;6.80;99.90;;;;;;5054775;28;20295;-64
2022/03/13 07:08:33;;;;;;;2.90;2.80;;;6.90;99.90;;;;;;5054841;28;20204;-65
2022/03/13 07:11:01;;;;;;;3.20;3.00;;;7.00;99.90;;;;;;5055925;28;20305;-65
2022/03/13 07:13:32;;;;;;;3.60;3.40;;;7.20;99.90;;;;;;5055449;28;20223;-64
2022/03/13 07:16:02;;;;;;;3.40;3.20;;;7.30;99.90;;;;;;5054589;28;20200;-66
2022/03/13 07:18:29;;;;;;;3.80;3.60;;;7.20;99.90;;;;;;5055945;28;20254;-65
2022/03/13 07:20:55;;;;;;;3.00;2.90;;;7.30;99.90;;;;;;5054705;28;20291;-65
2022/03/13 07:23:23;;;;;;;3.40;3.20;;;7.30;99.90;;;;;;5052395;28;20314;-66
2022/03/13 07:25:50;;;;;;;3.20;3.00;;;7.30;99.90;;;;;;5052415;28;20615;-66
2022/03/13 07:28:17;;;;;;;3.60;3.40;;;7.30;99.90;;;;;;5054473;28;20287;-64
2022/03/13 07:30:45;;;;;;;3.38;3.17;;;7.30;99.90;;;;;;5054060;28;20287;-65
2022/03/13 07:33:12;;;;;;;3.73;3.53;;;7.30;99.90;;;;;;5051391;28;20380;-65
2022/03/13 07:35:40;;;;;;;3.40;3.20;;;7.20;99.90;;;;;;5053965;28;20563;-65
2022/03/13 07:38:07;;;;;;;3.50;3.30;;;7.20;99.90;;;;;;5053430;28;20211;-66
2022/03/13 07:40:34;;;;;;;3.43;3.23;;;7.30;99.90;;;;;;5051233;28;20212;-65
2022/03/13 07:43:01;;;;;;;3.60;3.40;;;7.30;99.90;;;;;;5053172;28;20869;-66
2022/03/13 07:45:28;;;;;;;3.50;3.30;;;7.40;99.90;;;;;;5053958;28;21812;-67
2022/03/13 07:47:57;;;;;;;3.50;3.30;;;7.50;99.90;;;;;;5047484;28;20200;-66
2022/03/13 07:50:25;;;;;;;3.53;3.33;;;7.60;99.90;;;;;;5047756;28;20663;-66
2022/03/13 07:52:52;;;;;;;3.50;3.30;;;7.70;99.90;;;;;;5051681;28;20649;-66
2022/03/13 07:55:21;;;;;;;3.43;3.23;;;7.80;99.90;;;;;;5048632;28;20283;-66
2022/03/13 07:57:48;;;;;;;3.70;3.50;;;7.90;99.90;;;;;;5054025;28;20211;-65
2022/03/13 08:00:17;;;;;;;3.30;3.10;;;8.00;99.90;;;;;;5051759;28;20663;-66
2022/03/13 08:02:46;;;;;;;3.40;3.20;;;8.20;99.90;;;;;;5052462;28;20676;-61
2022/03/13 08:05:15;;;;;;;3.43;3.23;;;8.40;99.90;;;;;;5050564;28;20204;-63
2022/03/13 08:07:42;;;;;;;3.17;2.95;;;9.50;99.90;;;;;;5054296;28;20299;-63
2022/03/13 08:10:10;;;;;;;3.57;3.30;;;10.50;99.90;;;;;;5053301;28;20239;-63
2022/03/13 08:12:38;;;;;;;3.13;2.83;;;11.40;99.90;;;;;;5053922;28;20239;-63
2022/03/13 08:15:07;;;;;;;3.07;2.90;;;12.20;99.90;;;;;;5052771;28;20235;-64
2022/03/13 08:17:34;;;;;;;3.17;3.07;;;12.80;99.90;;;;;;5054065;28;20219;-62
2022/03/13 08:20:02;;;;;;;3.30;3.10;;;12.90;99.90;;;;;;5053993;28;20300;-66
2022/03/13 08:22:30;;;;;;;2.87;2.77;;;12.80;99.90;;;;;;5053364;28;20232;-65
2022/03/13 08:24:57;;;;;;;3.80;3.60;;;12.40;99.90;;;;;;5053140;28;20192;-65
2022/03/13 08:27:24;;;;;;;4.20;4.00;;;11.90;99.90;;;;;;5053593;28;20227;-70
2022/03/13 08:29:51;;;;;;;4.07;3.87;;;11.10;99.90;;;;;;5059403;28;20231;-68
2022/03/13 08:32:19;;;;;;;4.30;4.10;;;10.70;99.90;;;;;;5061039;28;20291;-65
2022/03/13 08:34:48;;;;;;;4.27;4.07;;;10.40;99.90;;;;;;5052795;28;20319;-66
2022/03/13 08:37:16;;;;;;;4.70;4.50;;;10.00;99.90;;;;;;5053132;28;20200;-66
2022/03/13 08:39:45;;;;;;;4.20;4.00;;;9.60;99.90;;;;;;5043716;28;20208;-65
2022/03/13 08:42:13;;;;;;;4.30;4.00;;;9.40;99.90;;;;;;5053291;28;20310;-67
2022/03/13 08:44:40;;;;;;;4.00;3.80;;;9.40;99.90;;;;;;5052219;28;20710;-65
2022/03/13 08:47:11;;;;;;;4.00;3.70;;;9.30;99.90;;;;;;5053139;28;20243;-65
2022/03/13 08:49:38;;;;;;;3.90;3.70;;;9.20;99.90;;;;;;5052097;28;20541;-66
2022/03/13 08:52:07;;;;;;;4.40;4.10;;;9.20;99.90;;;;;;5052751;28;20315;-66
2022/03/13 08:54:34;;;;;;;3.97;3.78;;;9.20;99.90;;;;;;5052256;28;20266;-66
2022/03/13 08:57:03;;;;;;;4.10;3.90;;;9.20;99.90;;;;;;5060315;28;20232;-66
2022/03/13 08:59:32;;;;;;;3.90;3.70;;;9.30;99.90;;;;;;5055051;28;20200;-66
2022/03/13 09:01:59;;;;;;;3.90;3.70;;;9.30;99.90;;;;;;5053878;28;20697;-66
2022/03/13 09:04:27;;;;;;;3.80;3.60;;;9.40;99.90;;;;;;5046018;28;20215;-65
2022/03/13 09:06:54;;;;;;;3.97;3.77;;;9.50;99.90;;;;;;5049688;28;20230;-67
2022/03/13 09:09:22;;;;;;;3.80;3.60;;;9.60;99.90;;;;;;5054296;28;20204;-66
2022/03/13 09:11:51;;;;;;;3.90;3.70;;;9.60;99.90;;;;;;5053677;28;20224;-65
2022/03/13 09:14:19;;;;;;;5.43;3.93;;;9.60;99.90;;;;;;5050959;28;20231;-66
2022/03/13 09:16:47;;;;;;;3.73;3.53;;;9.80;99.90;;;;;;5050197;28;20291;-66
2022/03/13 09:19:15;;;;;;;3.57;3.37;;;10.00;99.90;;;;;;5048962;28;20203;-66
2022/03/13 09:21:42;;;;;;;3.85;3.65;;;10.40;99.90;;;;;;5049395;28;20718;-66
2022/03/13 09:24:10;;;;;;;4.17;3.97;;;10.40;99.90;;;;;;5049131;28;20231;-65
2022/03/13 09:26:39;;;;;;;4.03;3.83;;;10.40;99.90;;;;;;5051224;28;20291;-66
2022/03/13 09:29:06;;;;;;;3.90;3.70;;;10.60;99.90;;;;;;5049789;28;20204;-66
2022/03/13 09:31:34;;;;;;;3.47;3.33;;;10.80;99.90;;;;;;5049504;28;20315;-66
2022/03/13 09:34:01;;;;;;;4.17;3.90;;;10.90;99.90;;;;;;5051643;28;20216;-64
2022/03/13 09:36:28;;;;;;;3.70;3.50;;;11.10;99.90;;;;;;5052680;28;20199;-66
2022/03/13 09:38:55;;;;;;;3.63;3.42;;;11.20;99.90;;;;;;5052881;28;20208;-66
2022/03/13 09:41:22;;;;;;;3.33;3.13;;;11.40;99.90;;;;;;5053023;28;20599;-65
2022/03/13 09:43:49;;;;;;;3.90;3.70;;;11.60;99.90;;;;;;5053934;28;20664;-66
2022/03/13 09:46:16;;;;;;;3.80;3.60;;;11.60;99.90;;;;;;5053667;28;20226;-66
2022/03/13 09:48:45;;;;;;;3.93;3.67;;;11.60;99.90;;;;;;5046220;28;20196;-64
2022/03/13 09:51:13;;;;;;;4.03;3.73;;;11.60;99.90;;;;;;5049675;28;20714;-65
2022/03/13 09:53:40;;;;;;;4.33;4.13;;;11.60;99.90;;;;;;5045608;28;20270;-65
2022/03/13 09:56:07;;;;;;;4.30;4.10;;;11.80;99.90;;;;;;5046508;28;20212;-66
2022/03/13 09:58:35;;;;;;;3.90;3.70;;;12.00;99.90;;;;;;5038947;28;20196;-67
2022/03/13 10:01:02;;;;;;;4.20;3.90;;;12.20;99.90;;;;;;5047790;28;20200;-64
2022/03/13 10:03:29;;;;;;;3.87;3.57;;;12.30;99.90;;;;;;5048610;28;20251;-64
2022/03/13 10:05:59;;;;;;;3.80;3.60;;;12.40;99.90;;;;;;5043102;28;20226;-66
2022/03/13 10:08:29;;;;;;;4.13;3.93;;;12.60;99.90;;;;;;5041435;28;20611;-65
2022/03/13 10:10:56;;;;;;;4.40;4.00;;;12.70;99.90;;;;;;5041113;28;20221;-66
2022/03/13 10:13:38;;;;;;;3.90;3.70;;;12.90;99.90;;;;;;5036354;28;20224;-65
2022/03/13 10:16:06;;;;;;;3.70;3.50;;;13.20;99.90;;;;;;5040505;28;20618;-65
2022/03/13 10:18:34;;;;;;;4.27;4.00;;;13.10;99.90;;;;;;5051385;28;20207;-66
2022/03/13 10:21:09;;;;;;;4.13;3.92;;;13.10;99.90;;;;;;5056205;28;20221;-66
2022/03/13 10:23:36;;;;;;;3.77;3.57;;;13.00;99.90;;;;;;5056017;28;20756;-65
2022/03/13 10:26:04;;;;;;;4.13;3.93;;;13.10;99.90;;;;;;5059721;28;20219;-67
2022/03/13 10:28:33;;;;;;;3.80;3.60;;;13.30;99.90;;;;;;5067851;28;21017;-66
2022/03/13 10:31:15;;;;;;;4.28;4.07;;;13.20;99.90;;;;;;5057240;28;20266;-67
2022/03/13 10:33:57;;;;;;;4.00;3.80;;;13.10;99.90;;;;;;5048004;28;20564;-63
2022/03/13 10:36:34;;;;;;;3.58;3.38;;;13.30;99.90;;;;;;5043878;28;20258;-66
2022/03/13 10:39:03;;;;;;;4.20;3.80;;;13.40;99.90;;;;;;5047464;28;20704;-65
2022/03/13 10:41:42;;;;;;;3.80;3.60;;;13.60;99.90;;;;;;5041305;28;20260;-64
2022/03/13 10:44:14;;;;;;;3.83;3.63;;;13.50;99.90;;;;;;5043896;28;20277;-65
2022/03/13 10:46:44;;;;;;;4.40;4.10;;;13.60;99.90;;;;;;5044269;28;20219;-66
2022/03/13 10:49:13;;;;;;;3.93;3.73;;;13.40;99.90;;;;;;5048982;28;20212;-66
2022/03/13 10:51:45;;;;;;;4.30;4.10;;;13.50;99.90;;;;;;5055462;28;20224;-66
2022/03/13 10:54:27;;;;;;;3.97;3.77;;;13.40;99.90;;;;;;5073555;28;20196;-66
2022/03/13 10:57:05;;;;;;;4.07;3.80;;;13.60;99.90;;;;;;5058158;28;20215;-67
2022/03/13 10:59:31;;;;;;;4.45;4.05;;;13.90;99.90;;;;;;5056374;28;20200;-67
2022/03/13 11:02:12;;;;;;;3.93;3.73;;;13.90;99.90;;;;;;5056251;28;20219;-67
2022/03/13 11:04:51;;;;;;;4.70;4.33;;;13.80;99.90;;;;;;5059325;28;20199;-65
2022/03/13 11:07:21;;;;;;;4.00;3.80;;;13.80;99.90;;;;;;5067491;28;20250;-66
2022/03/13 11:09:48;;;;;;;4.20;4.00;;;13.90;99.90;;;;;;5060858;28;20295;-66
2022/03/13 11:12:20;;;;;;;4.20;3.90;;;14.10;99.90;;;;;;5063466;28;20306;-65
2022/03/13 11:14:49;;;;;;;4.17;3.97;;;14.30;99.90;;;;;;5053719;28;20248;-65
2022/03/13 11:17:18;;;;;;;3.90;3.70;;;14.40;99.90;;;;;;5057436;28;20205;-66
2022/03/13 11:19:49;;;;;;;3.90;3.70;;;14.60;99.90;;;;;;5048701;28;20207;-66
2022/03/13 11:22:18;;;;;;;4.22;4.03;;;14.80;99.90;;;;;;5036924;28;20366;-66
2022/03/13 11:24:47;;;;;;;4.03;3.83;;;14.80;99.90;;;;;;5045335;28;20196;-67
2022/03/13 11:27:15;;;;;;;3.97;3.78;;;14.80;99.90;;;;;;5039509;28;20203;-66
2022/03/13 11:29:44;;;;;;;4.00;3.70;;;14.60;99.90;;;;;;5058743;28;20199;-65
2022/03/13 11:32:35;;;;;;;4.25;3.95;;;14.70;99.90;;;;;;5065521;28;20220;-66
2022/03/13 11:35:23;;;;;;;4.20;3.97;;;14.60;99.90;;;;;;5050687;28;20319;-66
2022/03/13 11:37:52;;;;;;;4.35;4.05;;;14.30;99.90;;;;;;5048463;28;20204;-66
2022/03/13 11:40:30;;;;;;;4.13;3.92;;;14.30;99.90;;;;;;5047885;28;20580;-65
2022/03/13 11:43:06;;;;;;;4.43;4.22;;;14.30;99.90;;;;;;5050668;28;20231;-66
2022/03/13 11:45:35;;;;;;;4.37;4.17;;;14.60;99.90;;;;;;5038759;28;20195;-66
2022/03/13 11:48:42;;;;;;;4.38;4.18;;;14.60;99.90;;;;;;5039145;28;20212;-64
2022/03/13 11:51:11;;;;;;;3.92;3.72;;;14.70;99.90;;;;;;5040655;28;20212;-65
2022/03/13 11:53:49;;;;;;;4.50;4.20;;;14.80;99.90;;;;;;5037953;28;20211;-68
2022/03/13 11:56:28;;;;;;;3.95;3.65;;;15.00;99.90;;;;;;5037962;28;20216;-66
2022/03/13 11:58:58;;;;;;;3.70;3.50;;;15.20;99.90;;;;;;5040192;28;20197;-71
2022/03/13 12:01:35;;;;;;;4.10;3.90;;;15.00;99.90;;;;;;5048375;28;20223;-68
2022/03/13 12:04:35;;;;;;;4.03;3.73;;;15.20;99.90;;;;;;5053608;28;20195;-65
2022/03/13 12:07:06;;;;;;;4.10;3.90;;;15.40;99.90;;;;;;4973129;28;20251;-66
2022/03/13 12:09:44;;;;;;;4.13;3.90;;;15.40;99.90;;;;;;4957723;28;20199;-65
2022/03/13 12:12:15;;;;;;;4.18;3.97;;;15.50;99.90;;;;;;4961731;28;20310;-65
2022/03/13 12:14:56;;;;;;;3.78;3.58;;;15.50;99.90;;;;;;4966346;28;20227;-65
2022/03/13 12:17:26;;;;;;;4.40;4.10;;;15.50;99.90;;;;;;4957791;28;20250;-68
2022/03/13 12:19:56;;;;;;;3.78;3.58;;;15.50;99.90;;;;;;4968750;28;20225;-65
2022/03/13 12:22:24;;;;;;;4.38;4.18;;;15.40;99.90;;;;;;4979655;28;20291;-65
2022/03/13 12:24:53;;;;;;;4.05;3.83;;;15.40;99.90;;;;;;4967065;28;20196;-65
2022/03/13 12:27:23;;;;;;;4.10;3.90;;;15.40;99.90;;;;;;4969315;28;20212;-68
2022/03/13 12:29:56;;;;;;;4.13;3.93;;;15.30;99.90;;;;;;4959720;28;20234;-67
2022/03/13 12:32:29;;;;;;;4.05;3.83;;;15.40;99.90;;;;;;4971169;28;20235;-65
2022/03/13 12:34:57;;;;;;;4.30;4.10;;;15.40;99.90;;;;;;4971801;28;20641;-67
2022/03/13 12:37:26;;;;;;;4.38;4.07;;;15.40;99.90;;;;;;4989580;28;20331;-67
2022/03/13 12:39:55;;;;;;;4.25;4.05;;;15.40;99.90;;;;;;5039102;28;20207;-66
2022/03/13 12:42:25;;;;;;;4.13;3.92;;;15.30;99.90;;;;;;5037525;28;20228;-65
2022/03/13 12:45:05;;;;;;;4.22;3.97;;;15.30;99.90;;;;;;5037407;28;20228;-65
2022/03/13 12:47:37;;;;;;;4.23;4.03;;;15.40;99.90;;;;;;5036477;28;20200;-64
2022/03/13 12:50:08;;;;;;;4.07;3.80;;;15.50;99.90;;;;;;5038936;28;20257;-64
2022/03/13 12:52:35;;;;;;;4.32;4.03;;;15.50;99.90;;;;;;5038808;28;20224;-66
2022/03/13 12:55:06;;;;;;;4.20;4.00;;;15.70;99.90;;;;;;5039878;28;20220;-66
2022/03/13 12:57:35;;;;;;;4.73;4.43;;;15.80;99.90;;;;;;5040805;28;20200;-66
2022/03/13 13:00:02;;;;;;;4.45;4.25;;;15.60;99.90;;;;;;5041630;28;20230;-67
2022/03/13 13:02:32;;;;;;;4.88;4.63;;;15.50;99.90;;;;;;5037673;28;20310;-65